createdAt,value
2023-01-19T00:01:00.527Z,13.88
2023-01-19T00:03:32.542Z,13.00
2023-01-19T00:06:02.337Z,10.82
2023-01-19T00:08:31.887Z,14.20
2023-01-19T00:11:01.295Z,9.70
2023-01-19T00:13:31.204Z,11.30
2023-01-19T00:16:00.642Z,12.25
2023-01-19T00:18:32.645Z,13.73
2023-01-19T00:21:02.341Z,12.93
2023-01-19T00:23:31.745Z,7.25
2023-01-19T00:26:01.140Z,11.45
2023-01-19T00:28:30.589Z,13.63
2023-01-19T00:31:00.027Z,9.40
2023-01-19T00:33:32.309Z,12.18
2023-01-19T00:36:01.725Z,10.65
2023-01-19T00:38:31.166Z,7.75
2023-01-19T00:41:00.563Z,8.20
2023-01-19T00:43:30.041Z,12.85
2023-01-19T00:45:59.604Z,7.72
2023-01-19T00:48:29.589Z,11.70
2023-01-19T00:51:02.255Z,15.48
2023-01-19T00:53:32.645Z,6.00
2023-01-19T00:56:02.090Z,5.72
2023-01-19T00:58:31.537Z,8.45
2023-01-19T01:01:03.874Z,10.45
2023-01-19T01:03:33.469Z,11.50
2023-01-19T01:06:08.303Z,10.43
2023-01-19T01:08:37.971Z,12.60
2023-01-19T01:11:08.080Z,4.15
2023-01-19T01:13:37.559Z,6.70
2023-01-19T01:16:08.042Z,7.10
2023-01-19T01:18:37.526Z,9.65
2023-01-19T01:21:10.331Z,7.68
2023-01-19T01:23:39.771Z,5.95
2023-01-19T01:26:09.232Z,11.35
2023-01-19T01:28:38.649Z,8.18
2023-01-19T01:31:08.139Z,8.88
2023-01-19T01:33:41.177Z,9.80
2023-01-19T01:36:14.677Z,11.73
2023-01-19T01:38:44.743Z,5.38
2023-01-19T01:41:14.383Z,8.43
2023-01-19T01:43:46.591Z,9.32
2023-01-19T01:46:17.669Z,13.45
2023-01-19T01:48:51.262Z,11.23
2023-01-19T01:51:27.393Z,10.55
2023-01-19T01:54:10.988Z,5.75
2023-01-19T01:56:42.039Z,10.30
2023-01-19T01:59:18.075Z,10.50
2023-01-19T02:02:00.360Z,6.93
2023-01-19T02:04:30.024Z,9.80
2023-01-19T02:07:14.467Z,9.68
2023-01-19T02:09:56.347Z,13.00
2023-01-19T02:12:38.805Z,8.77
2023-01-19T02:15:14.276Z,11.80
2023-01-19T02:17:43.749Z,7.68
2023-01-19T02:20:14.102Z,12.30
2023-01-19T02:22:49.416Z,5.80
2023-01-19T02:25:22.819Z,6.60
2023-01-19T02:27:52.975Z,10.95
2023-01-19T02:30:22.737Z,9.93
2023-01-19T02:32:52.358Z,10.93
2023-01-19T02:35:22.684Z,8.30
2023-01-19T02:37:52.443Z,8.95
2023-01-19T02:40:25.029Z,10.40
2023-01-19T02:42:55.213Z,8.82
2023-01-19T02:45:25.755Z,12.52
2023-01-19T02:47:55.749Z,5.63
2023-01-19T02:50:43.724Z,9.07
2023-01-19T02:53:28.507Z,6.85
2023-01-19T02:56:08.452Z,12.25
2023-01-19T02:58:41.662Z,5.05
2023-01-19T03:01:16.907Z,7.75
2023-01-19T03:03:51.216Z,12.77
2023-01-19T03:06:28.647Z,11.38
2023-01-19T03:09:02.279Z,5.57
2023-01-19T03:11:37.775Z,6.70
2023-01-19T03:14:12.116Z,10.88
2023-01-19T03:16:44.875Z,7.50
2023-01-19T03:19:19.222Z,12.10
2023-01-19T03:21:55.842Z,11.70
2023-01-19T03:24:26.579Z,8.38
2023-01-19T03:27:01.239Z,6.72
2023-01-19T03:29:31.916Z,12.10
2023-01-19T03:32:04.462Z,5.90
2023-01-19T03:34:34.254Z,11.48
2023-01-19T03:37:06.253Z,7.07
2023-01-19T03:39:37.007Z,10.10
2023-01-19T03:42:12.551Z,10.85
2023-01-19T03:44:43.044Z,10.52
2023-01-19T03:47:14.028Z,12.90
2023-01-19T03:49:44.610Z,6.97
2023-01-19T03:52:14.207Z,12.65
2023-01-19T03:54:43.747Z,6.78
2023-01-19T03:57:15.742Z,11.38
2023-01-19T03:59:45.108Z,11.65
2023-01-19T04:02:14.899Z,11.45
2023-01-19T04:04:44.572Z,8.23
2023-01-19T04:07:14.289Z,8.43
2023-01-19T04:09:43.865Z,13.52
2023-01-19T04:12:16.212Z,6.30
2023-01-19T04:14:45.617Z,10.57
2023-01-19T04:17:16.156Z,8.32
2023-01-19T04:19:45.887Z,7.90
2023-01-19T04:22:15.323Z,8.93
2023-01-19T04:24:44.717Z,7.72
2023-01-19T04:27:16.971Z,8.82
2023-01-19T04:29:46.590Z,9.75
2023-01-19T04:32:15.985Z,10.93
2023-01-19T04:34:45.379Z,9.63
2023-01-19T04:37:14.758Z,11.98
2023-01-19T04:39:44.164Z,8.30
2023-01-19T04:42:16.911Z,11.50
2023-01-19T04:44:46.703Z,11.73
2023-01-19T04:47:16.091Z,12.13
2023-01-19T04:49:45.481Z,8.23
2023-01-19T04:52:14.886Z,10.10
2023-01-19T04:54:44.325Z,12.55
2023-01-19T04:57:16.302Z,12.20
2023-01-19T04:59:45.710Z,15.10
2023-01-19T05:02:15.155Z,9.90
2023-01-19T05:04:44.691Z,8.70
2023-01-19T05:07:14.353Z,6.15
2023-01-19T05:09:43.883Z,10.52
2023-01-19T05:12:15.906Z,14.43
2023-01-19T05:14:45.340Z,12.20
2023-01-19T05:17:15.066Z,8.65
2023-01-19T05:19:44.482Z,10.02
2023-01-19T05:22:14.018Z,6.97
2023-01-19T05:24:43.637Z,11.63
2023-01-19T05:27:15.981Z,13.07
2023-01-19T05:29:45.387Z,15.68
2023-01-19T05:32:14.826Z,9.77
2023-01-19T05:34:44.210Z,14.73
2023-01-19T05:37:14.012Z,9.93
2023-01-19T05:39:43.421Z,11.52
2023-01-19T05:42:12.889Z,10.80
2023-01-19T05:44:44.843Z,7.78
2023-01-19T05:47:14.557Z,11.05
2023-01-19T05:49:43.930Z,16.45
2023-01-19T05:52:13.316Z,11.27
2023-01-19T05:54:42.834Z,8.88
2023-01-19T05:57:12.206Z,15.23
2023-01-19T05:59:44.757Z,10.40
2023-01-19T06:02:14.183Z,13.65
2023-01-19T06:04:43.654Z,15.65
2023-01-19T06:07:13.085Z,12.60
2023-01-19T06:09:42.509Z,12.10
2023-01-19T06:12:11.920Z,14.38
2023-01-19T06:14:43.880Z,7.30
2023-01-19T06:17:13.283Z,17.40
2023-01-19T06:19:42.646Z,11.73
2023-01-19T06:22:12.093Z,11.40
2023-01-19T06:24:41.507Z,5.57
2023-01-19T06:27:11.273Z,10.75
2023-01-19T06:29:41.073Z,17.27
2023-01-19T06:32:13.032Z,17.33
2023-01-19T06:34:43.838Z,18.80
2023-01-19T06:37:14.242Z,11.05
2023-01-19T06:39:45.396Z,8.35
2023-01-19T06:42:14.773Z,17.35
2023-01-19T06:44:47.580Z,9.60
2023-01-19T06:47:19.822Z,18.20
2023-01-19T06:49:49.544Z,15.02
2023-01-19T06:52:20.787Z,18.80
2023-01-19T06:54:50.212Z,16.30
2023-01-19T06:57:19.689Z,13.55
2023-01-19T06:59:49.133Z,8.15
2023-01-19T07:02:27.331Z,11.25
2023-01-19T07:04:57.541Z,11.43
2023-01-19T07:07:26.925Z,12.52
2023-01-19T07:09:56.375Z,12.23
2023-01-19T07:12:25.872Z,10.43
2023-01-19T07:14:55.279Z,11.60
2023-01-19T07:17:27.295Z,13.10
2023-01-19T07:19:56.708Z,8.40
2023-01-19T07:22:26.220Z,8.48
2023-01-19T07:24:55.586Z,14.27
2023-01-19T07:27:25.398Z,8.75
2023-01-19T07:29:54.822Z,9.82
2023-01-19T07:32:27.183Z,17.05
2023-01-19T07:34:56.664Z,8.95
2023-01-19T07:37:26.104Z,15.80
2023-01-19T07:39:55.808Z,17.88
2023-01-19T07:42:25.425Z,14.18
2023-01-19T07:44:54.813Z,12.45
2023-01-19T07:47:26.826Z,15.93
2023-01-19T07:49:56.192Z,18.50
2023-01-19T07:52:25.587Z,17.73
2023-01-19T07:54:55.006Z,9.90
2023-01-19T07:57:24.394Z,16.42
2023-01-19T07:59:53.788Z,10.48
2023-01-19T08:02:23.188Z,13.73
2023-01-19T08:04:55.327Z,17.30
2023-01-19T08:07:24.714Z,14.77
2023-01-19T08:09:54.172Z,11.93
2023-01-19T08:12:23.691Z,18.90
2023-01-19T08:14:53.746Z,20.02
2023-01-19T08:17:23.119Z,13.90
2023-01-19T08:19:55.110Z,15.00
2023-01-19T08:22:24.582Z,17.15
2023-01-19T08:24:56.805Z,11.40
2023-01-19T08:27:26.310Z,8.07
2023-01-19T08:29:56.305Z,14.57
2023-01-19T08:32:25.762Z,14.88
2023-01-19T08:34:57.842Z,19.73
2023-01-19T08:37:27.537Z,8.43
2023-01-19T08:39:57.013Z,15.00
2023-01-19T08:42:27.358Z,17.35
2023-01-19T08:44:58.479Z,17.40
2023-01-19T08:47:28.301Z,7.32
2023-01-19T08:50:00.282Z,13.70
2023-01-19T08:52:30.682Z,15.55
2023-01-19T08:55:00.830Z,13.07
2023-01-19T08:57:30.295Z,4.80
2023-01-19T08:59:59.667Z,14.20
2023-01-19T09:02:29.713Z,11.68
2023-01-19T09:05:01.849Z,15.85
2023-01-19T09:07:33.844Z,13.98
2023-01-19T09:10:04.917Z,10.77
2023-01-19T09:12:34.478Z,9.00
2023-01-19T09:15:03.943Z,10.02
2023-01-19T09:17:33.432Z,15.27
2023-01-19T09:20:06.313Z,13.18
2023-01-19T09:22:35.772Z,9.10
2023-01-19T09:25:05.258Z,9.15
2023-01-19T09:27:34.867Z,13.65
2023-01-19T09:30:04.391Z,18.50
2023-01-19T09:32:33.823Z,18.35
2023-01-19T09:35:06.031Z,12.57
2023-01-19T09:37:35.419Z,8.70
2023-01-19T09:40:04.955Z,10.68
2023-01-19T09:42:39.787Z,10.73
2023-01-19T09:45:12.266Z,15.63
2023-01-19T09:47:41.965Z,14.07
2023-01-19T09:50:19.812Z,9.45
2023-01-19T09:52:51.538Z,11.43
2023-01-19T09:55:23.866Z,8.93
2023-01-19T09:57:53.529Z,8.90
2023-01-19T10:00:25.011Z,15.35
2023-01-19T10:02:58.171Z,9.38
2023-01-19T10:05:33.706Z,13.43
2023-01-19T10:08:16.657Z,10.57
2023-01-19T10:10:51.257Z,11.90
2023-01-19T10:13:32.774Z,13.98
2023-01-19T10:16:07.352Z,11.27
2023-01-19T10:18:47.643Z,17.43
2023-01-19T10:21:22.062Z,13.13
2023-01-19T10:23:54.733Z,16.85
2023-01-19T10:26:26.610Z,16.42
2023-01-19T10:28:58.720Z,13.88
2023-01-19T10:31:28.338Z,12.00
2023-01-19T10:34:00.888Z,11.90
2023-01-19T10:36:39.610Z,12.05
2023-01-19T10:39:09.668Z,12.57
2023-01-19T10:41:44.262Z,8.00
2023-01-19T10:44:14.148Z,9.73
2023-01-19T10:46:46.866Z,11.00
2023-01-19T10:49:38.583Z,9.95
2023-01-19T10:52:14.383Z,12.40
2023-01-19T10:54:48.222Z,15.90
2023-01-19T10:57:26.502Z,12.35
2023-01-19T10:59:55.945Z,10.55
2023-01-19T11:02:27.710Z,11.35
2023-01-19T11:04:58.853Z,16.57
2023-01-19T11:07:35.629Z,23.02
2023-01-19T11:10:22.561Z,13.30
2023-01-19T11:13:01.354Z,16.23
2023-01-19T11:15:37.317Z,13.30
2023-01-19T11:18:08.130Z,30.73
2023-01-19T11:20:46.095Z,22.50
2023-01-19T11:23:28.812Z,17.08
2023-01-19T11:26:01.330Z,7.50
2023-01-19T11:28:33.210Z,13.33
2023-01-19T11:31:04.220Z,14.02
2023-01-19T11:33:38.419Z,23.13
2023-01-19T11:36:09.808Z,15.52
2023-01-19T11:38:47.041Z,16.30
2023-01-19T11:41:20.766Z,20.85
2023-01-19T11:43:53.163Z,18.17
2023-01-19T11:46:24.288Z,15.73
2023-01-19T11:49:02.064Z,15.03
2023-01-19T11:51:36.911Z,16.10
2023-01-19T11:54:15.822Z,10.30
2023-01-19T11:56:45.701Z,12.73
2023-01-19T11:59:15.818Z,15.10
2023-01-19T12:01:49.587Z,15.63
2023-01-19T12:04:22.821Z,11.67
2023-01-19T12:06:54.187Z,17.83
2023-01-19T12:09:27.994Z,14.10
2023-01-19T12:12:00.500Z,14.93
2023-01-19T12:14:34.320Z,11.53
2023-01-19T12:17:06.222Z,11.30
2023-01-19T12:19:42.866Z,10.87
2023-01-19T12:22:16.307Z,12.00
2023-01-19T12:24:55.062Z,10.40
2023-01-19T12:27:29.878Z,10.40
2023-01-19T12:29:59.270Z,11.20
2023-01-19T12:32:36.894Z,12.00
2023-01-19T12:35:06.711Z,9.77
2023-01-19T12:37:42.591Z,12.20
2023-01-19T12:40:39.025Z,10.27
2023-01-19T12:43:09.451Z,11.00
2023-01-19T12:45:39.837Z,10.60
2023-01-19T12:48:14.245Z,11.70
2023-01-19T12:50:48.720Z,12.13
2023-01-19T12:53:19.836Z,10.50
2023-01-19T12:56:01.191Z,9.52
2023-01-19T12:58:32.015Z,14.10
2023-01-19T13:01:19.989Z,9.00
2023-01-19T13:04:01.988Z,10.97
2023-01-19T13:07:10.541Z,11.13
2023-01-19T13:09:43.142Z,7.37
2023-01-19T13:12:29.015Z,12.52
2023-01-19T13:15:28.344Z,11.80
2023-01-19T13:17:57.997Z,10.50
2023-01-19T13:20:30.010Z,13.05
2023-01-19T13:23:21.963Z,12.90
2023-01-19T13:25:56.615Z,13.83
2023-01-19T13:28:36.568Z,14.20
2023-01-19T13:31:07.095Z,12.60
2023-01-19T13:33:46.859Z,14.77
2023-01-19T13:36:23.210Z,12.20
2023-01-19T13:38:53.426Z,12.33
2023-01-19T13:41:26.254Z,15.00
2023-01-19T13:44:02.907Z,13.60
2023-01-19T13:46:34.310Z,13.87
2023-01-19T13:49:06.659Z,13.33
2023-01-19T13:51:36.109Z,13.10
2023-01-19T13:54:06.439Z,12.93
2023-01-19T13:56:35.939Z,12.73
2023-01-19T13:59:14.955Z,11.50
2023-01-19T14:01:45.961Z,13.50
2023-01-19T14:04:32.416Z,10.97
2023-01-19T14:07:04.260Z,11.70
2023-01-19T14:09:33.879Z,12.23
2023-01-19T14:12:17.622Z,12.43
2023-01-19T14:14:49.844Z,11.60
2023-01-19T14:17:27.907Z,10.73
2023-01-19T14:19:58.913Z,11.47
2023-01-19T14:22:45.185Z,10.83
2023-01-19T14:25:30.329Z,10.60
2023-01-19T14:28:39.403Z,10.60
2023-01-19T14:31:24.976Z,11.23
2023-01-19T14:33:58.458Z,10.93
2023-01-19T14:36:39.193Z,10.83
2023-01-19T14:39:09.150Z,5.53
2023-01-19T14:41:40.879Z,10.57
2023-01-19T14:44:11.461Z,10.20
2023-01-19T14:46:48.398Z,11.43
2023-01-19T14:49:22.043Z,8.37
2023-01-19T14:51:56.066Z,9.10
2023-01-19T14:54:32.415Z,6.80
2023-01-19T14:57:01.800Z,8.60
2023-01-19T14:59:31.183Z,3.23
2023-01-19T15:02:03.404Z,9.77
2023-01-19T15:04:32.827Z,12.07
2023-01-19T15:07:02.377Z,10.07
2023-01-19T15:09:31.796Z,9.47
2023-01-19T15:12:01.728Z,14.47
2023-01-19T15:14:31.119Z,9.97
2023-01-19T15:17:03.138Z,11.43
2023-01-19T15:19:32.509Z,10.13
2023-01-19T15:22:01.917Z,9.20
2023-01-19T15:24:31.330Z,11.43
2023-01-19T15:27:02.580Z,7.83
2023-01-19T15:29:32.397Z,8.67
2023-01-19T15:32:04.428Z,8.93
2023-01-19T15:34:33.870Z,9.00
2023-01-19T15:37:03.287Z,8.03
2023-01-19T15:39:33.023Z,9.37
2023-01-19T15:42:02.508Z,9.50
2023-01-19T15:44:32.908Z,9.60
2023-01-19T15:47:04.955Z,9.07
2023-01-19T15:49:34.396Z,9.60
2023-01-19T15:52:03.818Z,9.37
2023-01-19T15:54:33.389Z,10.30
2023-01-19T15:57:02.753Z,10.20
2023-01-19T15:59:32.112Z,10.07
2023-01-19T16:02:01.840Z,11.03
2023-01-19T16:04:33.876Z,12.00
2023-01-19T16:07:03.253Z,9.70
2023-01-19T16:09:32.667Z,9.83
2023-01-19T16:12:02.099Z,7.50
2023-01-19T16:14:31.757Z,9.70
2023-01-19T16:17:01.964Z,8.63
2023-01-19T16:19:33.985Z,9.23
2023-01-19T16:22:05.581Z,8.17
2023-01-19T16:24:35.131Z,8.80
2023-01-19T16:27:04.575Z,8.23
2023-01-19T16:29:34.239Z,10.20
2023-01-19T16:32:03.649Z,8.40
2023-01-19T16:34:35.989Z,8.70
2023-01-19T16:37:05.371Z,8.63
2023-01-19T16:39:35.260Z,8.33
2023-01-19T16:42:04.726Z,7.10
2023-01-19T16:44:34.129Z,7.47
2023-01-19T16:47:03.596Z,6.17
2023-01-19T16:49:35.634Z,5.80
2023-01-19T16:52:05.004Z,4.90
2023-01-19T16:54:34.425Z,4.90
2023-01-19T16:57:03.820Z,4.73
2023-01-19T16:59:33.279Z,3.70
2023-01-19T17:02:02.733Z,3.97
2023-01-19T17:04:34.819Z,4.30
2023-01-19T17:07:04.286Z,3.90
2023-01-19T17:09:34.034Z,4.57
2023-01-19T17:12:03.441Z,4.13
2023-01-19T17:14:33.418Z,3.20
2023-01-19T17:17:05.237Z,2.70
2023-01-19T17:19:37.300Z,2.42
2023-01-19T17:22:06.815Z,2.70
2023-01-19T17:24:36.598Z,3.17
2023-01-19T17:27:05.974Z,3.17
2023-01-19T17:29:35.423Z,2.10
2023-01-19T17:32:04.851Z,2.30
2023-01-19T17:34:36.702Z,4.05
2023-01-19T17:37:08.664Z,3.08
2023-01-19T17:39:38.080Z,3.60
2023-01-19T17:42:07.574Z,3.08
2023-01-19T17:44:37.294Z,2.50
2023-01-19T17:47:06.787Z,3.67
2023-01-19T17:49:37.102Z,3.58
2023-01-19T17:52:09.202Z,3.40
2023-01-19T17:54:38.793Z,4.87
2023-01-19T17:57:08.201Z,3.72
2023-01-19T17:59:39.700Z,4.27
2023-01-19T18:02:09.500Z,3.92
2023-01-19T18:04:40.978Z,4.60
2023-01-19T18:07:12.980Z,4.53
2023-01-19T18:09:42.455Z,5.60
2023-01-19T18:12:11.884Z,4.53
2023-01-19T18:14:41.470Z,3.75
2023-01-19T18:17:10.887Z,3.30
2023-01-19T18:19:40.312Z,4.53
2023-01-19T18:22:09.726Z,3.13
2023-01-19T18:24:43.772Z,3.65
2023-01-19T18:27:13.452Z,3.00
2023-01-19T18:29:43.109Z,2.28
2023-01-19T18:32:13.047Z,2.35
2023-01-19T18:34:42.653Z,2.55
2023-01-19T18:37:12.027Z,2.30
2023-01-19T18:39:44.008Z,2.40
2023-01-19T18:42:13.389Z,3.63
2023-01-19T18:44:42.864Z,2.40
2023-01-19T18:47:12.244Z,2.00
2023-01-19T18:49:41.695Z,2.10
2023-01-19T18:52:11.119Z,2.80
2023-01-19T18:54:40.597Z,2.72
2023-01-19T18:57:12.563Z,2.78
2023-01-19T18:59:43.860Z,2.70
2023-01-19T19:02:13.899Z,4.18
2023-01-19T19:04:43.932Z,2.13
2023-01-19T19:07:13.299Z,2.13
2023-01-19T19:09:42.762Z,2.53
2023-01-19T19:12:14.781Z,3.53
2023-01-19T19:14:44.434Z,2.55
2023-01-19T19:17:13.861Z,2.42
2023-01-19T19:19:43.341Z,2.08
2023-01-19T19:22:12.810Z,3.03
2023-01-19T19:24:42.770Z,2.47
2023-01-19T19:27:14.738Z,1.90
2023-01-19T19:29:45.303Z,2.20
2023-01-19T19:32:15.652Z,2.22
2023-01-19T19:34:45.227Z,2.00
2023-01-19T19:37:14.623Z,2.38
2023-01-19T19:39:44.061Z,2.00
2023-01-19T19:42:16.031Z,3.90
2023-01-19T19:44:45.501Z,1.90
2023-01-19T19:47:14.897Z,1.70
2023-01-19T19:49:44.262Z,2.33
2023-01-19T19:52:13.762Z,2.05
2023-01-19T19:54:44.393Z,1.55
2023-01-19T19:57:16.392Z,2.40
2023-01-19T19:59:45.878Z,2.17
2023-01-19T20:02:15.603Z,1.73
2023-01-19T20:04:45.406Z,1.85
2023-01-19T20:07:17.759Z,1.40
2023-01-19T20:09:47.785Z,2.17
2023-01-19T20:12:19.765Z,1.83
2023-01-19T20:14:49.211Z,2.22
2023-01-19T20:17:19.066Z,1.80
2023-01-19T20:19:49.125Z,1.65
2023-01-19T20:22:18.859Z,1.52
2023-01-19T20:24:48.297Z,2.10
2023-01-19T20:27:20.282Z,2.00
2023-01-19T20:29:58.039Z,1.65
2023-01-19T20:32:27.793Z,1.15
2023-01-19T20:34:57.207Z,1.20
2023-01-19T20:37:26.652Z,2.50
2023-01-19T20:39:56.032Z,1.60
2023-01-19T20:42:28.041Z,2.03
2023-01-19T20:44:57.975Z,1.85
2023-01-19T20:47:27.358Z,2.00
2023-01-19T20:49:56.772Z,1.70
2023-01-19T20:52:26.252Z,2.38
2023-01-19T20:54:55.900Z,1.50
2023-01-19T20:57:27.968Z,2.08
2023-01-19T20:59:57.378Z,1.33
2023-01-19T21:02:28.489Z,2.03
2023-01-19T21:04:58.033Z,1.30
2023-01-19T21:07:27.458Z,1.70
2023-01-19T21:09:56.877Z,1.52
2023-01-19T21:12:29.140Z,1.17
2023-01-19T21:14:58.584Z,1.40
2023-01-19T21:17:28.122Z,1.48
2023-01-19T21:19:57.786Z,2.35
2023-01-19T21:22:27.310Z,1.70
2023-01-19T21:24:56.719Z,2.30
2023-01-19T21:27:28.997Z,1.35
2023-01-19T21:29:58.688Z,1.05
2023-01-19T21:32:28.088Z,2.45
2023-01-19T21:34:57.590Z,1.42
2023-01-19T21:37:27.064Z,2.38
2023-01-19T21:39:56.551Z,2.20
2023-01-19T21:42:25.979Z,1.98
2023-01-19T21:44:58.155Z,1.20
2023-01-19T21:47:27.695Z,1.58
2023-01-19T21:49:57.169Z,0.98
2023-01-19T21:52:26.604Z,1.10
2023-01-19T21:54:56.335Z,2.05
2023-01-19T21:57:25.781Z,1.77
2023-01-19T21:59:57.832Z,1.20
2023-01-19T22:02:38.176Z,1.67
2023-01-19T22:05:09.434Z,2.80
2023-01-19T22:07:38.857Z,0.98
2023-01-19T22:10:10.159Z,1.15
2023-01-19T22:12:40.859Z,1.00
2023-01-19T22:15:14.070Z,1.10
2023-01-19T22:17:43.711Z,1.00
2023-01-19T22:20:14.083Z,1.50
2023-01-19T22:22:58.787Z,1.00
2023-01-19T22:25:28.256Z,1.30
2023-01-19T22:27:58.723Z,1.50
2023-01-19T22:30:30.859Z,1.80
2023-01-19T22:33:00.313Z,1.60
2023-01-19T22:35:29.817Z,2.20
2023-01-19T22:37:59.301Z,2.60
2023-01-19T22:40:28.825Z,2.38
2023-01-19T22:42:58.215Z,2.50
2023-01-19T22:45:30.210Z,2.47
2023-01-19T22:47:59.599Z,2.67
2023-01-19T22:50:28.964Z,2.63
2023-01-19T22:52:58.703Z,2.97
2023-01-19T22:55:28.154Z,2.65
2023-01-19T22:57:57.580Z,2.03
2023-01-19T23:00:26.975Z,1.80
2023-01-19T23:02:59.172Z,2.85
2023-01-19T23:05:28.718Z,2.53
2023-01-19T23:07:58.168Z,3.55
2023-01-19T23:10:27.690Z,2.92
2023-01-19T23:12:57.102Z,3.72
2023-01-19T23:15:26.525Z,2.78
2023-01-19T23:17:56.009Z,3.10
2023-01-19T23:20:28.133Z,2.70
2023-01-19T23:22:57.784Z,3.38
2023-01-19T23:25:27.300Z,3.70
2023-01-19T23:27:56.900Z,2.90
2023-01-19T23:30:29.181Z,2.80
2023-01-19T23:32:58.626Z,2.92
2023-01-19T23:35:30.752Z,2.97
2023-01-19T23:38:00.245Z,3.25
2023-01-19T23:40:29.662Z,3.92
2023-01-19T23:42:59.089Z,2.95
2023-01-19T23:45:28.489Z,3.70
2023-01-19T23:47:57.898Z,2.90
2023-01-19T23:50:29.858Z,4.07
2023-01-19T23:52:59.288Z,2.47
2023-01-19T23:55:30.101Z,2.95
2023-01-19T23:57:59.497Z,3.05
